sensor_id;sensor_type;location;lat;lon;timestamp;P1;durP1;ratioP1;P2;durP2;ratioP2
43628;SDS011;56545;48.224;11.678;2022-10-31T00:02:22;15.65;;;7.32;;
43628;SDS011;56545;48.224;11.678;2022-10-31T00:04:48;18.67;;;7.60;;
43628;SDS011;56545;48.224;11.678;2022-10-31T00:07:14;15.85;;;7.22;;
43628;SDS011;56545;48.224;11.678;2022-10-31T00:09:40;19.52;;;8.18;;
43628;SDS011;56545;48.224;11.678;2022-10-31T00:12:06;17.50;;;8.30;;
43628;SDS011;56545;48.224;11.678;2022-10-31T00:14:32;18.02;;;7.60;;
43628;SDS011;56545;48.224;11.678;2022-10-31T00:16:58;14.50;;;7.35;;
43628;SDS011;56545;48.224;11.678;2022-10-31T00:19:23;15.88;;;7.10;;
43628;SDS011;56545;48.224;11.678;2022-10-31T00:21:51;15.30;;;7.50;;
43628;SDS011;56545;48.224;11.678;2022-10-31T00:24:17;17.10;;;7.20;;
43628;SDS011;56545;48.224;11.678;2022-10-31T00:26:43;17.70;;;6.95;;
43628;SDS011;56545;48.224;11.678;2022-10-31T00:29:09;14.27;;;7.68;;
43628;SDS011;56545;48.224;11.678;2022-10-31T00:31:35;17.27;;;7.20;;
43628;SDS011;56545;48.224;11.678;2022-10-31T00:34:01;15.85;;;7.30;;
43628;SDS011;56545;48.224;11.678;2022-10-31T00:36:28;14.45;;;7.40;;
43628;SDS011;56545;48.224;11.678;2022-10-31T00:38:53;16.70;;;7.90;;
43628;SDS011;56545;48.224;11.678;2022-10-31T00:41:19;18.00;;;7.53;;
43628;SDS011;56545;48.224;11.678;2022-10-31T00:43:45;15.00;;;7.10;;
43628;SDS011;56545;48.224;11.678;2022-10-31T00:46:12;16.00;;;7.40;;
43628;SDS011;56545;48.224;11.678;2022-10-31T00:48:38;15.82;;;7.70;;
43628;SDS011;56545;48.224;11.678;2022-10-31T00:51:04;15.70;;;7.22;;
43628;SDS011;56545;48.224;11.678;2022-10-31T00:53:30;15.07;;;7.03;;
43628;SDS011;56545;48.224;11.678;2022-10-31T00:55:56;14.48;;;6.20;;
43628;SDS011;56545;48.224;11.678;2022-10-31T00:58:22;15.02;;;6.55;;
43628;SDS011;56545;48.224;11.678;2022-10-31T01:00:48;15.65;;;7.22;;
43628;SDS011;56545;48.224;11.678;2022-10-31T01:03:23;21.75;;;7.10;;
43628;SDS011;56545;48.224;11.678;2022-10-31T01:06:01;15.85;;;6.75;;
43628;SDS011;56545;48.224;11.678;2022-10-31T01:08:29;18.23;;;7.13;;
43628;SDS011;56545;48.224;11.678;2022-10-31T01:13:33;15.18;;;7.13;;
43628;SDS011;56545;48.224;11.678;2022-10-31T01:15:59;13.35;;;7.00;;
43628;SDS011;56545;48.224;11.678;2022-10-31T01:18:26;14.02;;;7.45;;
43628;SDS011;56545;48.224;11.678;2022-10-31T01:21:03;16.23;;;7.13;;
43628;SDS011;56545;48.224;11.678;2022-10-31T01:23:31;15.48;;;6.72;;
43628;SDS011;56545;48.224;11.678;2022-10-31T01:25:58;13.75;;;7.00;;
43628;SDS011;56545;48.224;11.678;2022-10-31T01:28:32;17.83;;;7.13;;
43628;SDS011;56545;48.224;11.678;2022-10-31T01:31:00;16.15;;;6.75;;
43628;SDS011;56545;48.224;11.678;2022-10-31T01:33:27;15.85;;;6.82;;
43628;SDS011;56545;48.224;11.678;2022-10-31T01:35:53;14.13;;;6.88;;
43628;SDS011;56545;48.224;11.678;2022-10-31T01:38:19;14.55;;;6.80;;
43628;SDS011;56545;48.224;11.678;2022-10-31T01:40:45;11.82;;;6.25;;
43628;SDS011;56545;48.224;11.678;2022-10-31T01:43:14;13.27;;;7.10;;
43628;SDS011;56545;48.224;11.678;2022-10-31T01:45:43;15.23;;;6.60;;
43628;SDS011;56545;48.224;11.678;2022-10-31T01:48:14;16.33;;;6.72;;
43628;SDS011;56545;48.224;11.678;2022-10-31T01:50:42;13.13;;;7.05;;
43628;SDS011;56545;48.224;11.678;2022-10-31T01:53:12;14.35;;;7.65;;
43628;SDS011;56545;48.224;11.678;2022-10-31T01:55:39;24.23;;;8.30;;
43628;SDS011;56545;48.224;11.678;2022-10-31T01:58:07;17.48;;;7.53;;
43628;SDS011;56545;48.224;11.678;2022-10-31T02:00:37;12.15;;;6.85;;
43628;SDS011;56545;48.224;11.678;2022-10-31T02:03:04;18.42;;;7.45;;
43628;SDS011;56545;48.224;11.678;2022-10-31T02:05:30;18.63;;;7.50;;
43628;SDS011;56545;48.224;11.678;2022-10-31T02:07:58;18.48;;;7.68;;
43628;SDS011;56545;48.224;11.678;2022-10-31T02:10:25;17.27;;;7.60;;
43628;SDS011;56545;48.224;11.678;2022-10-31T02:12:52;15.52;;;7.82;;
43628;SDS011;56545;48.224;11.678;2022-10-31T02:15:21;12.20;;;6.60;;
43628;SDS011;56545;48.224;11.678;2022-10-31T02:17:47;13.27;;;6.78;;
43628;SDS011;56545;48.224;11.678;2022-10-31T02:20:16;14.13;;;7.00;;
43628;SDS011;56545;48.224;11.678;2022-10-31T02:33:41;14.63;;;6.72;;
43628;SDS011;56545;48.224;11.678;2022-10-31T02:39:06;11.80;;;6.10;;
43628;SDS011;56545;48.224;11.678;2022-10-31T02:46:50;14.07;;;6.32;;
43628;SDS011;56545;48.224;11.678;2022-10-31T02:52:28;12.63;;;6.40;;
43628;SDS011;56545;48.224;11.678;2022-10-31T02:54:56;15.40;;;6.82;;
43628;SDS011;56545;48.224;11.678;2022-10-31T02:57:28;14.55;;;7.07;;
43628;SDS011;56545;48.224;11.678;2022-10-31T02:59:57;17.55;;;7.85;;
43628;SDS011;56545;48.224;11.678;2022-10-31T03:10:59;16.45;;;7.68;;
43628;SDS011;56545;48.224;11.678;2022-10-31T03:13:45;13.60;;;7.68;;
43628;SDS011;56545;48.224;11.678;2022-10-31T03:16:21;15.43;;;6.97;;
43628;SDS011;56545;48.224;11.678;2022-10-31T03:19:00;13.43;;;6.13;;
43628;SDS011;56545;48.224;11.678;2022-10-31T03:21:29;14.68;;;6.05;;
43628;SDS011;56545;48.224;11.678;2022-10-31T03:23:55;13.68;;;7.28;;
43628;SDS011;56545;48.224;11.678;2022-10-31T03:26:23;13.52;;;6.55;;
43628;SDS011;56545;48.224;11.678;2022-10-31T03:28:55;18.00;;;6.45;;
43628;SDS011;56545;48.224;11.678;2022-10-31T03:31:26;13.80;;;6.55;;
43628;SDS011;56545;48.224;11.678;2022-10-31T03:33:57;13.45;;;6.80;;
43628;SDS011;56545;48.224;11.678;2022-10-31T03:36:25;14.50;;;6.55;;
43628;SDS011;56545;48.224;11.678;2022-10-31T03:38:52;16.58;;;6.47;;
43628;SDS011;56545;48.224;11.678;2022-10-31T03:41:19;13.35;;;6.38;;
43628;SDS011;56545;48.224;11.678;2022-10-31T03:44:00;11.02;;;6.55;;
43628;SDS011;56545;48.224;11.678;2022-10-31T03:46:31;10.80;;;6.28;;
43628;SDS011;56545;48.224;11.678;2022-10-31T03:48:57;16.90;;;6.07;;
43628;SDS011;56545;48.224;11.678;2022-10-31T03:51:38;11.25;;;5.78;;
43628;SDS011;56545;48.224;11.678;2022-10-31T03:56:49;14.40;;;6.32;;
43628;SDS011;56545;48.224;11.678;2022-10-31T04:02:08;9.93;;;5.40;;
43628;SDS011;56545;48.224;11.678;2022-10-31T04:04:38;12.55;;;5.55;;
43628;SDS011;56545;48.224;11.678;2022-10-31T04:07:04;16.23;;;5.75;;
43628;SDS011;56545;48.224;11.678;2022-10-31T04:09:33;11.68;;;5.85;;
43628;SDS011;56545;48.224;11.678;2022-10-31T04:12:02;11.20;;;5.97;;
43628;SDS011;56545;48.224;11.678;2022-10-31T04:14:33;13.82;;;5.88;;
43628;SDS011;56545;48.224;11.678;2022-10-31T04:17:03;10.93;;;5.50;;
43628;SDS011;56545;48.224;11.678;2022-10-31T04:19:33;13.30;;;5.82;;
43628;SDS011;56545;48.224;11.678;2022-10-31T04:21:59;13.38;;;5.53;;
43628;SDS011;56545;48.224;11.678;2022-10-31T04:24:25;13.38;;;5.40;;
43628;SDS011;56545;48.224;11.678;2022-10-31T04:26:51;10.98;;;5.45;;
43628;SDS011;56545;48.224;11.678;2022-10-31T04:29:17;14.80;;;5.03;;
43628;SDS011;56545;48.224;11.678;2022-10-31T04:31:43;12.85;;;4.82;;
43628;SDS011;56545;48.224;11.678;2022-10-31T04:34:08;13.43;;;5.47;;
43628;SDS011;56545;48.224;11.678;2022-10-31T04:36:34;11.48;;;4.75;;
43628;SDS011;56545;48.224;11.678;2022-10-31T04:39:00;12.27;;;4.90;;
43628;SDS011;56545;48.224;11.678;2022-10-31T04:41:26;13.13;;;4.80;;
43628;SDS011;56545;48.224;11.678;2022-10-31T04:43:52;12.80;;;4.78;;
43628;SDS011;56545;48.224;11.678;2022-10-31T04:46:18;12.00;;;5.10;;
43628;SDS011;56545;48.224;11.678;2022-10-31T04:48:44;12.27;;;4.28;;
43628;SDS011;56545;48.224;11.678;2022-10-31T04:51:10;13.75;;;5.03;;
43628;SDS011;56545;48.224;11.678;2022-10-31T04:53:36;14.93;;;4.90;;
43628;SDS011;56545;48.224;11.678;2022-10-31T04:56:02;14.98;;;4.70;;
43628;SDS011;56545;48.224;11.678;2022-10-31T04:58:28;11.93;;;4.60;;
43628;SDS011;56545;48.224;11.678;2022-10-31T05:00:54;12.02;;;4.40;;
43628;SDS011;56545;48.224;11.678;2022-10-31T05:03:21;11.50;;;4.28;;
43628;SDS011;56545;48.224;11.678;2022-10-31T05:05:47;12.55;;;4.43;;
43628;SDS011;56545;48.224;11.678;2022-10-31T05:08:13;10.10;;;4.60;;
43628;SDS011;56545;48.224;11.678;2022-10-31T05:10:39;11.30;;;4.22;;
43628;SDS011;56545;48.224;11.678;2022-10-31T05:13:05;9.07;;;3.95;;
43628;SDS011;56545;48.224;11.678;2022-10-31T05:15:31;9.23;;;4.00;;
43628;SDS011;56545;48.224;11.678;2022-10-31T05:17:58;10.00;;;4.28;;
43628;SDS011;56545;48.224;11.678;2022-10-31T05:20:24;10.30;;;3.75;;
43628;SDS011;56545;48.224;11.678;2022-10-31T05:22:53;10.45;;;4.07;;
43628;SDS011;56545;48.224;11.678;2022-10-31T05:25:21;9.07;;;3.40;;
43628;SDS011;56545;48.224;11.678;2022-10-31T05:27:50;8.23;;;3.25;;
43628;SDS011;56545;48.224;11.678;2022-10-31T05:30:18;7.35;;;3.22;;
43628;SDS011;56545;48.224;11.678;2022-10-31T05:32:46;9.88;;;3.50;;
43628;SDS011;56545;48.224;11.678;2022-10-31T05:35:17;9.30;;;3.60;;
43628;SDS011;56545;48.224;11.678;2022-10-31T05:37:44;10.30;;;4.00;;
43628;SDS011;56545;48.224;11.678;2022-10-31T05:40:11;10.00;;;3.72;;
43628;SDS011;56545;48.224;11.678;2022-10-31T05:42:39;9.68;;;3.83;;
43628;SDS011;56545;48.224;11.678;2022-10-31T05:45:06;10.50;;;3.53;;
43628;SDS011;56545;48.224;11.678;2022-10-31T05:47:33;9.82;;;3.28;;
43628;SDS011;56545;48.224;11.678;2022-10-31T05:49:59;9.75;;;3.17;;
43628;SDS011;56545;48.224;11.678;2022-10-31T05:52:25;10.48;;;2.95;;
43628;SDS011;56545;48.224;11.678;2022-10-31T05:54:50;11.57;;;3.63;;
43628;SDS011;56545;48.224;11.678;2022-10-31T05:57:16;8.23;;;3.10;;
43628;SDS011;56545;48.224;11.678;2022-10-31T05:59:42;10.38;;;3.55;;
43628;SDS011;56545;48.224;11.678;2022-10-31T06:02:08;8.68;;;3.30;;
43628;SDS011;56545;48.224;11.678;2022-10-31T06:04:34;7.38;;;3.70;;
43628;SDS011;56545;48.224;11.678;2022-10-31T06:07:00;8.10;;;3.45;;
43628;SDS011;56545;48.224;11.678;2022-10-31T06:09:26;11.50;;;3.70;;
43628;SDS011;56545;48.224;11.678;2022-10-31T06:11:52;9.07;;;3.50;;
43628;SDS011;56545;48.224;11.678;2022-10-31T06:14:18;11.98;;;3.97;;
43628;SDS011;56545;48.224;11.678;2022-10-31T06:16:43;9.35;;;3.28;;
43628;SDS011;56545;48.224;11.678;2022-10-31T06:19:09;8.98;;;3.30;;
43628;SDS011;56545;48.224;11.678;2022-10-31T06:21:35;10.57;;;3.30;;
43628;SDS011;56545;48.224;11.678;2022-10-31T06:24:01;9.82;;;3.50;;
43628;SDS011;56545;48.224;11.678;2022-10-31T06:26:27;9.52;;;3.60;;
43628;SDS011;56545;48.224;11.678;2022-10-31T06:28:53;12.70;;;3.90;;
43628;SDS011;56545;48.224;11.678;2022-10-31T06:31:19;11.25;;;3.92;;
43628;SDS011;56545;48.224;11.678;2022-10-31T06:33:45;8.50;;;3.72;;
43628;SDS011;56545;48.224;11.678;2022-10-31T06:36:11;11.40;;;3.78;;
43628;SDS011;56545;48.224;11.678;2022-10-31T06:38:37;13.57;;;4.68;;
43628;SDS011;56545;48.224;11.678;2022-10-31T06:41:04;11.55;;;4.63;;
43628;SDS011;56545;48.224;11.678;2022-10-31T06:43:30;10.20;;;4.28;;
43628;SDS011;56545;48.224;11.678;2022-10-31T06:45:56;13.88;;;4.25;;
43628;SDS011;56545;48.224;11.678;2022-10-31T06:48:22;12.45;;;4.13;;
43628;SDS011;56545;48.224;11.678;2022-10-31T06:50:48;11.20;;;3.65;;
43628;SDS011;56545;48.224;11.678;2022-10-31T06:53:14;10.98;;;4.05;;
43628;SDS011;56545;48.224;11.678;2022-10-31T06:55:40;8.07;;;3.35;;
43628;SDS011;56545;48.224;11.678;2022-10-31T06:58:08;12.18;;;3.92;;
43628;SDS011;56545;48.224;11.678;2022-10-31T07:00:35;9.18;;;3.47;;
43628;SDS011;56545;48.224;11.678;2022-10-31T07:03:02;10.73;;;3.67;;
43628;SDS011;56545;48.224;11.678;2022-10-31T07:05:29;10.98;;;4.30;;
43628;SDS011;56545;48.224;11.678;2022-10-31T07:07:57;12.30;;;4.10;;
43628;SDS011;56545;48.224;11.678;2022-10-31T07:10:25;16.05;;;4.03;;
43628;SDS011;56545;48.224;11.678;2022-10-31T07:12:55;14.02;;;4.32;;
43628;SDS011;56545;48.224;11.678;2022-10-31T07:15:26;19.70;;;4.65;;
43628;SDS011;56545;48.224;11.678;2022-10-31T07:17:53;14.23;;;4.78;;
43628;SDS011;56545;48.224;11.678;2022-10-31T07:20:24;13.77;;;4.50;;
43628;SDS011;56545;48.224;11.678;2022-10-31T07:22:50;16.80;;;4.82;;
43628;SDS011;56545;48.224;11.678;2022-10-31T07:25:16;13.50;;;4.70;;
43628;SDS011;56545;48.224;11.678;2022-10-31T07:27:42;13.02;;;4.35;;
43628;SDS011;56545;48.224;11.678;2022-10-31T07:30:09;14.85;;;4.22;;
43628;SDS011;56545;48.224;11.678;2022-10-31T07:32:43;14.60;;;4.38;;
43628;SDS011;56545;48.224;11.678;2022-10-31T07:35:12;12.10;;;3.78;;
43628;SDS011;56545;48.224;11.678;2022-10-31T07:37:39;12.98;;;3.60;;
43628;SDS011;56545;48.224;11.678;2022-10-31T07:40:06;9.77;;;4.00;;
43628;SDS011;56545;48.224;11.678;2022-10-31T07:42:36;13.65;;;3.42;;
43628;SDS011;56545;48.224;11.678;2022-10-31T07:45:07;13.18;;;3.95;;
43628;SDS011;56545;48.224;11.678;2022-10-31T07:47:38;9.10;;;3.15;;
43628;SDS011;56545;48.224;11.678;2022-10-31T07:50:11;8.73;;;3.03;;
43628;SDS011;56545;48.224;11.678;2022-10-31T07:52:39;10.20;;;3.30;;
43628;SDS011;56545;48.224;11.678;2022-10-31T07:55:06;10.05;;;3.42;;
43628;SDS011;56545;48.224;11.678;2022-10-31T07:57:34;9.95;;;2.65;;
43628;SDS011;56545;48.224;11.678;2022-10-31T08:00:02;10.20;;;3.30;;
43628;SDS011;56545;48.224;11.678;2022-10-31T08:02:29;11.23;;;3.10;;
43628;SDS011;56545;48.224;11.678;2022-10-31T08:04:55;9.70;;;3.17;;
43628;SDS011;56545;48.224;11.678;2022-10-31T08:07:21;8.98;;;3.05;;
43628;SDS011;56545;48.224;11.678;2022-10-31T08:09:47;10.80;;;3.40;;
43628;SDS011;56545;48.224;11.678;2022-10-31T08:12:13;10.05;;;3.40;;
43628;SDS011;56545;48.224;11.678;2022-10-31T08:14:39;9.85;;;3.30;;
43628;SDS011;56545;48.224;11.678;2022-10-31T08:17:05;8.60;;;3.42;;
43628;SDS011;56545;48.224;11.678;2022-10-31T08:19:31;10.35;;;3.55;;
43628;SDS011;56545;48.224;11.678;2022-10-31T08:21:57;11.43;;;3.42;;
43628;SDS011;56545;48.224;11.678;2022-10-31T08:24:23;9.52;;;3.70;;
43628;SDS011;56545;48.224;11.678;2022-10-31T08:26:49;9.07;;;4.05;;
43628;SDS011;56545;48.224;11.678;2022-10-31T08:29:16;9.68;;;3.55;;
43628;SDS011;56545;48.224;11.678;2022-10-31T08:31:42;36.03;;;29.80;;
43628;SDS011;56545;48.224;11.678;2022-10-31T08:34:08;15.73;;;6.72;;
43628;SDS011;56545;48.224;11.678;2022-10-31T08:36:34;12.27;;;4.32;;
43628;SDS011;56545;48.224;11.678;2022-10-31T08:39:00;10.63;;;3.78;;
43628;SDS011;56545;48.224;11.678;2022-10-31T08:41:26;9.45;;;4.03;;
43628;SDS011;56545;48.224;11.678;2022-10-31T08:43:52;9.32;;;4.20;;
43628;SDS011;56545;48.224;11.678;2022-10-31T08:46:18;11.77;;;4.22;;
43628;SDS011;56545;48.224;11.678;2022-10-31T08:48:44;10.18;;;4.00;;
43628;SDS011;56545;48.224;11.678;2022-10-31T08:51:12;9.68;;;4.13;;
43628;SDS011;56545;48.224;11.678;2022-10-31T08:53:38;10.15;;;4.07;;
43628;SDS011;56545;48.224;11.678;2022-10-31T08:56:04;10.77;;;4.35;;
43628;SDS011;56545;48.224;11.678;2022-10-31T08:58:30;9.93;;;4.25;;
43628;SDS011;56545;48.224;11.678;2022-10-31T09:00:58;11.48;;;4.55;;
43628;SDS011;56545;48.224;11.678;2022-10-31T09:03:29;11.57;;;3.90;;
43628;SDS011;56545;48.224;11.678;2022-10-31T09:05:56;13.38;;;4.80;;
43628;SDS011;56545;48.224;11.678;2022-10-31T09:08:25;11.95;;;4.40;;
43628;SDS011;56545;48.224;11.678;2022-10-31T09:10:55;9.88;;;4.00;;
43628;SDS011;56545;48.224;11.678;2022-10-31T09:13:23;11.23;;;4.30;;
43628;SDS011;56545;48.224;11.678;2022-10-31T09:15:49;10.88;;;4.40;;
43628;SDS011;56545;48.224;11.678;2022-10-31T09:18:21;12.73;;;3.97;;
43628;SDS011;56545;48.224;11.678;2022-10-31T09:23:23;11.50;;;3.75;;
43628;SDS011;56545;48.224;11.678;2022-10-31T09:25:50;14.82;;;4.43;;
43628;SDS011;56545;48.224;11.678;2022-10-31T09:28:18;25.85;;;19.60;;
43628;SDS011;56545;48.224;11.678;2022-10-31T09:30:52;16.90;;;7.40;;
43628;SDS011;56545;48.224;11.678;2022-10-31T09:33:21;9.50;;;3.97;;
43628;SDS011;56545;48.224;11.678;2022-10-31T09:35:48;11.80;;;4.00;;
43628;SDS011;56545;48.224;11.678;2022-10-31T09:38:39;11.60;;;3.92;;
43628;SDS011;56545;48.224;11.678;2022-10-31T09:52:28;10.95;;;4.40;;
43628;SDS011;56545;48.224;11.678;2022-10-31T09:55:04;10.95;;;4.18;;
43628;SDS011;56545;48.224;11.678;2022-10-31T09:57:38;10.80;;;3.85;;
43628;SDS011;56545;48.224;11.678;2022-10-31T10:00:06;9.88;;;3.88;;
43628;SDS011;56545;48.224;11.678;2022-10-31T10:02:44;10.18;;;3.80;;
43628;SDS011;56545;48.224;11.678;2022-10-31T10:05:22;11.60;;;3.72;;
43628;SDS011;56545;48.224;11.678;2022-10-31T10:16:34;12.52;;;3.90;;
43628;SDS011;56545;48.224;11.678;2022-10-31T10:22:12;9.88;;;3.80;;
43628;SDS011;56545;48.224;11.678;2022-10-31T10:32:50;10.07;;;4.00;;
43628;SDS011;56545;48.224;11.678;2022-10-31T10:35:21;10.25;;;4.10;;
43628;SDS011;56545;48.224;11.678;2022-10-31T10:37:49;11.40;;;4.30;;
43628;SDS011;56545;48.224;11.678;2022-10-31T10:40:23;11.97;;;3.77;;
43628;SDS011;56545;48.224;11.678;2022-10-31T10:45:53;11.32;;;4.10;;
43628;SDS011;56545;48.224;11.678;2022-10-31T11:00:15;12.32;;;3.38;;
43628;SDS011;56545;48.224;11.678;2022-10-31T11:02:42;9.00;;;3.30;;
43628;SDS011;56545;48.224;11.678;2022-10-31T11:05:13;11.18;;;3.13;;
43628;SDS011;56545;48.224;11.678;2022-10-31T11:07:45;9.63;;;2.70;;
43628;SDS011;56545;48.224;11.678;2022-10-31T11:10:14;9.27;;;3.28;;
43628;SDS011;56545;48.224;11.678;2022-10-31T11:12:42;12.57;;;3.10;;
43628;SDS011;56545;48.224;11.678;2022-10-31T11:15:17;10.50;;;3.20;;
43628;SDS011;56545;48.224;11.678;2022-10-31T11:17:48;10.20;;;2.88;;
43628;SDS011;56545;48.224;11.678;2022-10-31T11:22:43;8.45;;;2.83;;
43628;SDS011;56545;48.224;11.678;2022-10-31T11:25:20;8.65;;;2.90;;
43628;SDS011;56545;48.224;11.678;2022-10-31T11:27:47;9.70;;;3.20;;
43628;SDS011;56545;48.224;11.678;2022-10-31T11:30:24;10.82;;;3.00;;
43628;SDS011;56545;48.224;11.678;2022-10-31T11:32:50;9.65;;;2.88;;
43628;SDS011;56545;48.224;11.678;2022-10-31T11:35:17;8.30;;;3.00;;
43628;SDS011;56545;48.224;11.678;2022-10-31T11:37:46;11.07;;;3.13;;
43628;SDS011;56545;48.224;11.678;2022-10-31T11:40:18;11.73;;;3.20;;
43628;SDS011;56545;48.224;11.678;2022-10-31T11:42:49;9.35;;;3.15;;
43628;SDS011;56545;48.224;11.678;2022-10-31T11:45:27;14.25;;;4.05;;
43628;SDS011;56545;48.224;11.678;2022-10-31T11:47:54;8.48;;;2.95;;
43628;SDS011;56545;48.224;11.678;2022-10-31T11:50:23;8.63;;;2.85;;
43628;SDS011;56545;48.224;11.678;2022-10-31T11:52:51;9.55;;;3.03;;
43628;SDS011;56545;48.224;11.678;2022-10-31T11:55:37;9.85;;;2.67;;
43628;SDS011;56545;48.224;11.678;2022-10-31T11:58:05;9.27;;;2.85;;
43628;SDS011;56545;48.224;11.678;2022-10-31T12:00:54;8.77;;;2.83;;
43628;SDS011;56545;48.224;11.678;2022-10-31T12:06:21;8.32;;;2.72;;
43628;SDS011;56545;48.224;11.678;2022-10-31T12:08:47;10.18;;;3.22;;
43628;SDS011;56545;48.224;11.678;2022-10-31T12:13:59;10.75;;;3.05;;
43628;SDS011;56545;48.224;11.678;2022-10-31T12:16:36;9.50;;;3.50;;
43628;SDS011;56545;48.224;11.678;2022-10-31T12:22:17;12.23;;;2.75;;
43628;SDS011;56545;48.224;11.678;2022-10-31T12:24:56;9.57;;;3.03;;
43628;SDS011;56545;48.224;11.678;2022-10-31T12:33:25;12.50;;;2.65;;
43628;SDS011;56545;48.224;11.678;2022-10-31T12:36:10;12.60;;;3.30;;
43628;SDS011;56545;48.224;11.678;2022-10-31T12:41:47;9.40;;;3.22;;
43628;SDS011;56545;48.224;11.678;2022-10-31T12:49:42;13.80;;;3.58;;
43628;SDS011;56545;48.224;11.678;2022-10-31T12:58:35;9.80;;;3.20;;
43628;SDS011;56545;48.224;11.678;2022-10-31T13:01:08;13.38;;;3.40;;
43628;SDS011;56545;48.224;11.678;2022-10-31T13:04:01;10.30;;;3.58;;
43628;SDS011;56545;48.224;11.678;2022-10-31T13:06:42;9.63;;;3.47;;
43628;SDS011;56545;48.224;11.678;2022-10-31T13:09:15;11.57;;;4.15;;
43628;SDS011;56545;48.224;11.678;2022-10-31T13:12:14;11.40;;;4.18;;
43628;SDS011;56545;48.224;11.678;2022-10-31T13:14:51;13.55;;;4.25;;
43628;SDS011;56545;48.224;11.678;2022-10-31T13:20:11;12.38;;;3.95;;
43628;SDS011;56545;48.224;11.678;2022-10-31T13:23:04;10.45;;;4.00;;
43628;SDS011;56545;48.224;11.678;2022-10-31T13:26:06;11.88;;;4.15;;
43628;SDS011;56545;48.224;11.678;2022-10-31T13:31:42;13.55;;;4.97;;
43628;SDS011;56545;48.224;11.678;2022-10-31T13:34:12;13.57;;;4.85;;
43628;SDS011;56545;48.224;11.678;2022-10-31T13:39:30;14.75;;;4.90;;
43628;SDS011;56545;48.224;11.678;2022-10-31T13:42:14;14.18;;;5.20;;
43628;SDS011;56545;48.224;11.678;2022-10-31T13:44:54;14.07;;;5.65;;
43628;SDS011;56545;48.224;11.678;2022-10-31T13:47:31;16.05;;;5.55;;
43628;SDS011;56545;48.224;11.678;2022-10-31T13:55:46;13.52;;;5.82;;
43628;SDS011;56545;48.224;11.678;2022-10-31T13:58:27;14.15;;;6.90;;
43628;SDS011;56545;48.224;11.678;2022-10-31T14:03:35;15.02;;;6.55;;
43628;SDS011;56545;48.224;11.678;2022-10-31T14:06:03;13.90;;;6.60;;
43628;SDS011;56545;48.224;11.678;2022-10-31T14:08:31;15.57;;;7.18;;
43628;SDS011;56545;48.224;11.678;2022-10-31T14:10:59;16.13;;;7.20;;
43628;SDS011;56545;48.224;11.678;2022-10-31T14:13:34;15.30;;;7.70;;
43628;SDS011;56545;48.224;11.678;2022-10-31T14:16:06;16.42;;;7.55;;
43628;SDS011;56545;48.224;11.678;2022-10-31T14:19:05;18.50;;;7.45;;
43628;SDS011;56545;48.224;11.678;2022-10-31T14:21:41;18.05;;;7.47;;
43628;SDS011;56545;48.224;11.678;2022-10-31T14:29:33;15.02;;;7.30;;
43628;SDS011;56545;48.224;11.678;2022-10-31T14:34:57;18.75;;;10.05;;
43628;SDS011;56545;48.224;11.678;2022-10-31T14:43:07;16.40;;;7.53;;
43628;SDS011;56545;48.224;11.678;2022-10-31T14:46:01;15.60;;;7.45;;
43628;SDS011;56545;48.224;11.678;2022-10-31T14:52:01;17.88;;;7.60;;
43628;SDS011;56545;48.224;11.678;2022-10-31T14:54:42;17.35;;;7.50;;
43628;SDS011;56545;48.224;11.678;2022-10-31T14:57:12;13.18;;;6.78;;
43628;SDS011;56545;48.224;11.678;2022-10-31T14:59:45;16.15;;;7.40;;
43628;SDS011;56545;48.224;11.678;2022-10-31T15:02:28;14.73;;;7.32;;
43628;SDS011;56545;48.224;11.678;2022-10-31T15:04:59;21.33;;;7.50;;
43628;SDS011;56545;48.224;11.678;2022-10-31T15:07:27;14.15;;;7.43;;
43628;SDS011;56545;48.224;11.678;2022-10-31T15:10:00;18.70;;;7.88;;
43628;SDS011;56545;48.224;11.678;2022-10-31T15:12:31;19.08;;;7.20;;
43628;SDS011;56545;48.224;11.678;2022-10-31T15:15:11;15.88;;;7.68;;
43628;SDS011;56545;48.224;11.678;2022-10-31T15:17:49;16.75;;;7.60;;
43628;SDS011;56545;48.224;11.678;2022-10-31T15:20:18;15.50;;;7.80;;
43628;SDS011;56545;48.224;11.678;2022-10-31T15:22:46;15.55;;;7.50;;
43628;SDS011;56545;48.224;11.678;2022-10-31T15:25:21;17.52;;;7.85;;
43628;SDS011;56545;48.224;11.678;2022-10-31T15:27:49;14.88;;;8.00;;
43628;SDS011;56545;48.224;11.678;2022-10-31T15:32:48;15.38;;;7.50;;
43628;SDS011;56545;48.224;11.678;2022-10-31T15:35:19;20.45;;;7.20;;
43628;SDS011;56545;48.224;11.678;2022-10-31T15:37:51;21.80;;;7.55;;
43628;SDS011;56545;48.224;11.678;2022-10-31T15:40:18;18.33;;;7.65;;
43628;SDS011;56545;48.224;11.678;2022-10-31T15:42:56;18.65;;;7.80;;
43628;SDS011;56545;48.224;11.678;2022-10-31T15:45:27;19.48;;;7.70;;
43628;SDS011;56545;48.224;11.678;2022-10-31T15:50:32;22.33;;;8.40;;
43628;SDS011;56545;48.224;11.678;2022-10-31T15:53:03;24.38;;;7.90;;
43628;SDS011;56545;48.224;11.678;2022-10-31T15:55:32;22.13;;;7.85;;
43628;SDS011;56545;48.224;11.678;2022-10-31T15:58:03;21.42;;;8.27;;
43628;SDS011;56545;48.224;11.678;2022-10-31T16:00:36;23.00;;;7.72;;
43628;SDS011;56545;48.224;11.678;2022-10-31T16:03:08;26.00;;;7.90;;
43628;SDS011;56545;48.224;11.678;2022-10-31T16:05:43;18.02;;;7.18;;
43628;SDS011;56545;48.224;11.678;2022-10-31T16:10:55;25.80;;;10.95;;
43628;SDS011;56545;48.224;11.678;2022-10-31T16:13:29;20.65;;;8.35;;
43628;SDS011;56545;48.224;11.678;2022-10-31T16:15:57;26.48;;;7.90;;
43628;SDS011;56545;48.224;11.678;2022-10-31T16:18:25;20.73;;;7.63;;
43628;SDS011;56545;48.224;11.678;2022-10-31T16:20:53;24.45;;;8.13;;
43628;SDS011;56545;48.224;11.678;2022-10-31T16:23:21;21.38;;;8.00;;
43628;SDS011;56545;48.224;11.678;2022-10-31T16:25:49;22.80;;;7.50;;
43628;SDS011;56545;48.224;11.678;2022-10-31T16:30:50;22.63;;;7.82;;
43628;SDS011;56545;48.224;11.678;2022-10-31T16:33:26;20.13;;;7.93;;
43628;SDS011;56545;48.224;11.678;2022-10-31T16:35:58;28.17;;;13.73;;
43628;SDS011;56545;48.224;11.678;2022-10-31T16:38:27;25.83;;;15.88;;
43628;SDS011;56545;48.224;11.678;2022-10-31T16:40:53;22.02;;;9.27;;
43628;SDS011;56545;48.224;11.678;2022-10-31T16:43:19;22.45;;;8.50;;
43628;SDS011;56545;48.224;11.678;2022-10-31T16:45:48;24.67;;;8.45;;
43628;SDS011;56545;48.224;11.678;2022-10-31T16:48:16;20.48;;;8.50;;
43628;SDS011;56545;48.224;11.678;2022-10-31T16:50:45;19.17;;;8.50;;
43628;SDS011;56545;48.224;11.678;2022-10-31T16:53:12;18.75;;;8.25;;
43628;SDS011;56545;48.224;11.678;2022-10-31T16:55:41;20.95;;;8.70;;
43628;SDS011;56545;48.224;11.678;2022-10-31T16:58:12;14.80;;;7.95;;
43628;SDS011;56545;48.224;11.678;2022-10-31T17:00:45;22.63;;;10.70;;
43628;SDS011;56545;48.224;11.678;2022-10-31T17:03:11;21.05;;;10.45;;
43628;SDS011;56545;48.224;11.678;2022-10-31T17:05:37;16.58;;;7.88;;
43628;SDS011;56545;48.224;11.678;2022-10-31T17:08:03;18.73;;;8.25;;
43628;SDS011;56545;48.224;11.678;2022-10-31T17:10:29;17.02;;;8.70;;
43628;SDS011;56545;48.224;11.678;2022-10-31T17:12:55;19.50;;;8.25;;
43628;SDS011;56545;48.224;11.678;2022-10-31T17:15:24;21.58;;;8.25;;
43628;SDS011;56545;48.224;11.678;2022-10-31T17:17:51;20.98;;;8.55;;
43628;SDS011;56545;48.224;11.678;2022-10-31T17:20:26;17.65;;;7.47;;
43628;SDS011;56545;48.224;11.678;2022-10-31T17:22:54;18.55;;;8.05;;